Strona główna
METAR-TAF:

METAR-TAF

Lotnisko :

Port lotniczy Pakxe

Pakxe, Laos

Szerokość geograficzna: 15-08-02N, Długość geograficzna: 105-46-55E, wysokość: 107 m

Aktualna obserwacja pogody

Raport powstał 1 godzina i 14 minut temu, godzina 07:00 UTC
Wiatr 4 kt od wschód
Temperatura 32°C
Wilgotność 63%
Ciśnienie 1009 hPa
Widzialność 10 km lub więcej
Rozproszone chmury na wysokości 2000 ft
Mało chmury na wysokości 2300 ft, Cumulusy wypiętrznone.

METAR: VLPS 040700Z 09004KT 9999 SCT020 FEW023TCU 32/24 Q1009 TCU,NW NOSIG

czas: 15:14 (08:14 UTC)

Prognoza

Raport powstał 3 godziny i 14 minut temu, godzina 05:00 UTC
Prognoza ważna od 04 godzina 06 UTC do 05 godzina 06 UTC
Wiatr 4 kt od południe
Widzialność 10 km lub więcej
Rozproszone chmury na wysokości 2000 ft
Mało chmury na wysokości 2300 ft, Cumulusy wypiętrznone.
Mało chmury na wysokości 5000 ft
Rozproszone chmury na wysokości 20000 ft

TAF: VLPS 040500Z 0406/0506 18004KT 9999 SCT020 FEW023TCU FEW050 SCT200

Obserwacja i prognoza pogody dla ponad 4000 lotnisk (raport METAR i TAF).

Dostępne stacje oznaczono żółtymi i czerwonymi punktami na mapie.

Najedź kursorem aby zobaczyć nazwę stacji.

Kliknij aby zobaczyć obserwacje i prognozy pogody.

Aby zmienić mapę: kliknij na zielony przycisk z czarnym krzyżykiem, aby powiększyć; na zielony przycisk z myślnikiem, aby pomniejszyć; na zielone strzałki, aby przejść do map sąsiednich.


METAR-TAF: